Time;durP1;ratioP1;P1;durP2;ratioP2;P2;SDS_P1;SDS_P2;PMS_P1;PMS_P2;Temp;Humidity;BMP_temperature;BMP_pressure;BME280_temperature;BME280_humidity;BME280_pressure;Samples;Min_cycle;Max_cycle;Signal;HPM_P1;HPM_P2
2024/01/07 06:00:46;;;;;;;19.30;12.52;;;5.50;90.70;;;;;;4931805;23;20111;31
2024/01/07 06:02:47;;;;;;;19.38;12.48;;;5.50;90.70;;;;;;3990396;29;20054;-80
2024/01/07 06:04:48;;;;;;;18.77;12.75;;;5.40;90.70;;;;;;3991758;29;20103;-77
2024/01/07 06:06:50;;;;;;;18.98;12.25;;;5.50;91.10;;;;;;3991924;29;20047;-78
2024/01/07 06:08:52;;;;;;;18.38;11.65;;;5.50;91.10;;;;;;3991827;29;20465;-80
2024/01/07 06:10:54;;;;;;;18.52;12.05;;;5.50;91.40;;;;;;3991465;29;20487;-78
2024/01/07 06:12:56;;;;;;;20.25;12.63;;;5.50;91.00;;;;;;3991777;29;20137;-79
2024/01/07 06:14:58;;;;;;;20.85;12.85;;;5.50;90.90;;;;;;3991904;29;20054;-79
2024/01/07 06:17:01;;;;;;;18.98;12.85;;;5.50;90.90;;;;;;3991503;29;20050;-77
2024/01/07 06:19:03;;;;;;;18.70;11.88;;;5.50;90.90;;;;;;3992074;29;20088;-79
2024/01/07 06:21:06;;;;;;;20.08;13.20;;;5.50;90.90;;;;;;3993841;29;20106;-77
2024/01/07 06:23:08;;;;;;;19.67;12.52;;;5.50;90.80;;;;;;3988137;29;20477;-77
2024/01/07 06:25:10;;;;;;;18.77;12.23;;;5.50;90.60;;;;;;4007611;29;20046;-78
2024/01/07 06:27:11;;;;;;;19.67;12.60;;;5.50;90.80;;;;;;3997947;29;20054;-78
2024/01/07 06:29:12;;;;;;;21.80;12.88;;;5.50;90.70;;;;;;3999938;29;20062;-79
2024/01/07 06:31:14;;;;;;;20.08;12.45;;;5.50;90.70;;;;;;3995791;29;20046;-79
2024/01/07 06:33:17;;;;;;;17.70;11.18;;;5.50;90.80;;;;;;3994303;29;20470;-78
2024/01/07 06:35:19;;;;;;;20.35;13.05;;;5.50;90.80;;;;;;3994403;29;20050;-78
2024/01/07 06:37:21;;;;;;;21.45;13.02;;;5.50;90.70;;;;;;3994109;29;20095;-78
2024/01/07 06:39:23;;;;;;;19.77;12.80;;;5.50;90.70;;;;;;3993894;29;20469;-78
2024/01/07 06:41:25;;;;;;;18.95;13.15;;;5.50;90.70;;;;;;3994190;29;20047;-79
2024/01/07 06:43:27;;;;;;;23.40;13.25;;;5.50;90.70;;;;;;3994324;29;20140;-79
2024/01/07 06:45:29;;;;;;;21.20;13.20;;;5.50;90.70;;;;;;3994448;29;20524;-79
2024/01/07 06:47:31;;;;;;;22.45;13.60;;;5.50;90.70;;;;;;3994217;29;20055;-79
2024/01/07 06:49:34;;;;;;;20.33;13.35;;;5.50;90.70;;;;;;3994200;29;20119;-79
2024/01/07 06:51:36;;;;;;;19.88;10.15;;;5.50;90.60;;;;;;3993996;29;20107;-79
2024/01/07 06:53:37;;;;;;;19.77;13.02;;;5.50;90.60;;;;;;3998225;29;20444;-79
2024/01/07 06:55:40;;;;;;;19.23;12.70;;;5.50;90.60;;;;;;4000032;29;20062;-79
2024/01/07 06:57:41;;;;;;;17.52;12.02;;;5.50;90.60;;;;;;3994147;29;20515;-77
2024/01/07 06:59:43;;;;;;;20.23;12.60;;;5.50;90.60;;;;;;3994019;29;20058;-78
2024/01/07 07:01:44;;;;;;;21.98;13.02;;;5.50;90.60;;;;;;4006282;29;20102;-78
2024/01/07 07:03:46;;;;;;;20.17;12.55;;;5.60;90.60;;;;;;4023429;29;20053;-78
2024/01/07 07:05:49;;;;;;;21.77;13.65;;;5.50;90.60;;;;;;4015223;29;20050;-77
2024/01/07 07:07:51;;;;;;;20.60;13.43;;;5.50;90.70;;;;;;4009132;29;20050;-78
2024/01/07 07:09:53;;;;;;;20.15;13.50;;;5.50;90.60;;;;;;4014655;29;20491;-78
2024/01/07 07:11:55;;;;;;;18.75;13.38;;;5.50;90.70;;;;;;4020384;29;20050;-78
2024/01/07 07:13:57;;;;;;;21.13;13.05;;;5.50;90.70;;;;;;4009008;29;20096;-78
2024/01/07 07:15:59;;;;;;;20.58;12.90;;;5.50;90.70;;;;;;4008970;29;20122;-78
2024/01/07 07:18:01;;;;;;;18.15;12.57;;;5.50;90.70;;;;;;4008852;29;20064;-78
2024/01/07 07:20:03;;;;;;;19.80;13.88;;;5.50;90.70;;;;;;4021512;29;20061;-77
2024/01/07 07:22:06;;;;;;;23.50;13.88;;;5.50;90.70;;;;;;4020375;29;20041;-77
2024/01/07 07:24:08;;;;;;;19.73;12.85;;;5.50;90.60;;;;;;4008477;29;20049;-78
2024/01/07 07:26:10;;;;;;;23.65;14.70;;;5.50;90.60;;;;;;4008571;29;20049;-79
2024/01/07 07:28:12;;;;;;;22.52;14.52;;;5.50;90.70;;;;;;4009114;29;20058;-77
2024/01/07 07:30:15;;;;;;;32.20;19.67;;;5.50;90.70;;;;;;4010925;29;20070;-79
2024/01/07 07:32:17;;;;;;;30.60;18.75;;;5.50;90.50;;;;;;4016819;29;20057;-76
2024/01/07 07:34:19;;;;;;;33.25;19.27;;;5.50;90.60;;;;;;4015903;29;20381;-78
2024/01/07 07:36:21;;;;;;;29.23;16.98;;;5.50;90.50;;;;;;4018991;29;20496;-77
2024/01/07 07:38:24;;;;;;;30.17;17.58;;;5.50;90.50;;;;;;4023667;29;20057;-77
2024/01/07 07:40:26;;;;;;;27.13;16.02;;;5.50;90.60;;;;;;4010390;29;20110;-75
2024/01/07 07:42:28;;;;;;;26.55;16.10;;;5.50;90.60;;;;;;4009695;29;20186;-77
2024/01/07 07:44:30;;;;;;;22.05;12.10;;;5.50;90.50;;;;;;4008703;29;20050;-79
2024/01/07 07:46:31;;;;;;;28.38;17.05;;;5.40;90.40;;;;;;4008517;29;20106;-79
2024/01/07 07:48:33;;;;;;;25.55;15.02;;;5.40;90.50;;;;;;4008369;29;20057;-79
2024/01/07 07:50:34;;;;;;;23.08;14.65;;;5.50;90.60;;;;;;4008340;29;20118;-78
2024/01/07 07:52:35;;;;;;;24.45;14.98;;;5.50;90.50;;;;;;4009114;29;20123;-79
2024/01/07 07:54:39;;;;;;;20.92;13.88;;;5.50;90.40;;;;;;4008046;29;20058;-79
2024/01/07 07:56:41;;;;;;;21.90;10.68;;;5.50;90.50;;;;;;4014638;29;20105;-77
2024/01/07 07:58:43;;;;;;;23.30;14.10;;;5.40;90.40;;;;;;4016199;29;20076;-78
2024/01/07 08:00:45;;;;;;;20.98;13.63;;;5.50;90.40;;;;;;4008170;29;20503;-79
2024/01/07 08:02:47;;;;;;;21.90;13.73;;;5.50;90.40;;;;;;4008270;29;20140;-78
2024/01/07 08:04:50;;;;;;;27.52;14.63;;;5.50;90.20;;;;;;4014866;29;20117;-79
2024/01/07 08:06:52;;;;;;;23.48;14.73;;;5.50;90.30;;;;;;4023624;29;20148;-77
2024/01/07 08:08:54;;;;;;;22.83;14.63;;;5.50;90.30;;;;;;4018272;29;20054;-77
2024/01/07 08:10:58;;;;;;;25.90;15.13;;;5.50;90.30;;;;;;4007777;29;20081;-77
2024/01/07 08:12:59;;;;;;;26.38;15.75;;;5.50;90.40;;;;;;4007857;29;20061;-77
2024/01/07 08:15:02;;;;;;;33.58;22.13;;;5.40;90.40;;;;;;4008079;29;20054;-79
2024/01/07 08:17:04;;;;;;;28.48;17.75;;;5.40;90.30;;;;;;4007960;29;20503;-77
2024/01/07 08:19:06;;;;;;;27.88;17.40;;;5.40;90.40;;;;;;4008145;29;20096;-78
2024/01/07 08:21:08;;;;;;;22.27;13.23;;;5.40;90.20;;;;;;4009581;29;20471;-78
2024/01/07 08:23:10;;;;;;;14.88;9.48;;;5.40;90.00;;;;;;3995524;29;20405;-80
2024/01/07 08:25:11;;;;;;;16.55;10.38;;;5.30;88.00;;;;;;3997473;29;20046;-79
2024/01/07 08:27:14;;;;;;;15.00;9.10;;;5.40;87.60;;;;;;4007995;29;20569;-77
2024/01/07 08:29:16;;;;;;;14.77;8.85;;;5.30;86.40;;;;;;4008013;29;20488;-79
2024/01/07 08:31:18;;;;;;;12.43;7.82;;;5.30;85.80;;;;;;4000190;29;20054;-77
2024/01/07 08:33:20;;;;;;;13.07;7.18;;;5.20;85.20;;;;;;3992672;29;20058;-76
2024/01/07 08:35:22;;;;;;;12.13;8.27;;;5.20;85.00;;;;;;4001173;29;20095;-78
2024/01/07 08:37:23;;;;;;;12.55;8.20;;;5.20;84.40;;;;;;4007635;29;20093;-78
2024/01/07 08:39:25;;;;;;;13.13;8.50;;;5.20;84.40;;;;;;4007737;29;20061;-79
2024/01/07 08:41:26;;;;;;;12.85;8.23;;;5.10;85.30;;;;;;4007368;29;20050;-77
2024/01/07 08:43:29;;;;;;;15.20;9.02;;;5.10;84.80;;;;;;4007856;29;20409;-79
2024/01/07 08:45:31;;;;;;;14.27;9.15;;;5.20;85.30;;;;;;4008019;29;20050;-82
2024/01/07 08:47:34;;;;;;;15.60;9.15;;;5.10;85.70;;;;;;4007124;29;20117;-79
2024/01/07 08:49:38;;;;;;;12.95;7.00;;;5.20;87.10;;;;;;4007439;29;20110;-78
2024/01/07 08:51:40;;;;;;;13.77;8.23;;;5.10;85.30;;;;;;4007618;29;20050;-80
2024/01/07 08:53:41;;;;;;;12.77;8.30;;;5.20;86.10;;;;;;4007234;29;20053;-77
2024/01/07 08:55:43;;;;;;;13.13;7.28;;;5.20;85.50;;;;;;4007692;29;20050;-78
2024/01/07 08:57:48;;;;;;;12.73;6.82;;;5.10;85.00;;;;;;4007289;29;20053;-79
2024/01/07 08:59:52;;;;;;;11.77;6.60;;;5.10;84.80;;;;;;4007268;29;20050;-79
2024/01/07 09:01:54;;;;;;;12.73;7.72;;;5.10;85.20;;;;;;4007242;29;20060;-81
2024/01/07 09:03:56;;;;;;;12.73;7.68;;;5.10;84.30;;;;;;4007008;29;20412;-80
2024/01/07 09:05:57;;;;;;;15.30;9.18;;;5.00;84.00;;;;;;4007459;29;20053;-81
2024/01/07 09:08:00;;;;;;;14.80;9.07;;;5.00;84.70;;;;;;4007229;29;20408;-78
2024/01/07 09:10:01;;;;;;;14.82;8.38;;;5.00;84.60;;;;;;4007134;29;20046;-79
2024/01/07 09:12:03;;;;;;;13.80;7.93;;;5.00;84.20;;;;;;4006888;29;20054;-76
2024/01/07 09:14:05;;;;;;;18.30;8.60;;;5.00;84.20;;;;;;4007087;29;20058;-80
2024/01/07 09:16:11;;;;;;;14.10;8.05;;;5.00;84.50;;;;;;4006557;29;20411;-79
2024/01/07 09:18:13;;;;;;;22.42;12.63;;;4.90;83.30;;;;;;4003739;29;20055;-78
2024/01/07 09:20:15;;;;;;;16.55;8.68;;;4.90;84.10;;;;;;4007631;29;20464;-78
2024/01/07 09:22:17;;;;;;;18.50;11.07;;;4.90;83.80;;;;;;4007051;29;20102;-79
2024/01/07 09:24:18;;;;;;;15.00;9.30;;;4.90;83.90;;;;;;4007064;29;20061;-80
2024/01/07 09:26:21;;;;;;;13.27;7.93;;;4.90;83.60;;;;;;4006836;29;20408;-76
2024/01/07 09:28:23;;;;;;;15.27;8.60;;;4.80;83.30;;;;;;4006656;29;20496;-79
2024/01/07 09:30:25;;;;;;;12.82;7.78;;;4.80;83.30;;;;;;4007200;29;20098;-80
2024/01/07 09:32:28;;;;;;;14.63;8.32;;;4.80;82.90;;;;;;4006445;29;20111;-79
2024/01/07 09:34:29;;;;;;;14.10;7.18;;;4.80;83.00;;;;;;4012141;29;20049;-80
2024/01/07 09:36:31;;;;;;;13.35;7.53;;;4.70;82.30;;;;;;4012514;29;20058;-80
2024/01/07 09:38:34;;;;;;;12.15;7.10;;;4.70;83.60;;;;;;4007045;29;20057;-77
2024/01/07 09:40:35;;;;;;;11.90;7.60;;;4.80;83.90;;;;;;4006894;29;20110;-79
2024/01/07 09:42:38;;;;;;;12.90;7.13;;;4.80;83.30;;;;;;4007078;29;20058;-79
2024/01/07 09:44:40;;;;;;;11.63;7.13;;;4.80;83.30;;;;;;4006866;29;20046;-79
2024/01/07 09:46:43;;;;;;;12.02;6.97;;;4.80;82.40;;;;;;4007320;29;20061;-78
2024/01/07 09:48:47;;;;;;;12.30;7.05;;;4.80;82.60;;;;;;4006537;29;20050;-78
2024/01/07 09:50:49;;;;;;;10.50;6.45;;;4.80;82.00;;;;;;4007146;29;20061;-79
2024/01/07 09:52:54;;;;;;;12.02;7.15;;;4.70;81.20;;;;;;4006912;29;20110;-75
2024/01/07 09:55:03;;;;;;;9.98;6.43;;;4.70;81.30;;;;;;4007079;29;20110;-79
2024/01/07 09:57:07;;;;;;;11.27;6.75;;;4.70;81.70;;;;;;4008129;29;20054;-76
2024/01/07 09:59:10;;;;;;;10.82;6.53;;;4.70;81.80;;;;;;4006254;29;20057;-78
2024/01/07 10:01:12;;;;;;;12.82;6.90;;;4.70;81.20;;;;;;4012020;29;20456;-77
2024/01/07 10:03:13;;;;;;;11.55;7.18;;;4.70;81.40;;;;;;4021361;29;20057;-79
2024/01/07 10:05:16;;;;;;;11.23;6.63;;;4.70;81.50;;;;;;4007959;29;20476;-79
2024/01/07 10:07:18;;;;;;;15.93;8.95;;;4.70;81.20;;;;;;4008451;29;20543;-79
2024/01/07 10:09:23;;;;;;;14.93;8.45;;;4.70;80.70;;;;;;4005895;29;20675;-78
2024/01/07 10:11:25;;;;;;;12.85;7.25;;;4.60;80.50;;;;;;4007396;29;20419;-79
2024/01/07 10:13:26;;;;;;;11.55;6.82;;;4.70;81.40;;;;;;3999782;29;20058;-79
2024/01/07 10:15:28;;;;;;;11.75;7.22;;;4.70;81.50;;;;;;4020404;29;20130;-80
2024/01/07 10:17:30;;;;;;;11.90;6.97;;;4.70;81.10;;;;;;4007061;29;20060;-78
2024/01/07 10:19:32;;;;;;;11.00;5.80;;;4.60;80.10;;;;;;4010892;29;20046;-79
2024/01/07 10:21:35;;;;;;;11.68;6.63;;;4.60;79.90;;;;;;4020798;29;20775;-78
2024/01/07 10:23:37;;;;;;;10.77;6.53;;;4.70;80.20;;;;;;4022564;29;20057;-81
2024/01/07 10:25:40;;;;;;;12.40;6.68;;;4.60;80.20;;;;;;4011822;29;20053;-79
2024/01/07 10:27:42;;;;;;;10.57;6.60;;;4.60;80.00;;;;;;4007093;29;20058;-79
2024/01/07 10:29:47;;;;;;;12.27;6.65;;;4.60;80.00;;;;;;4011185;29;20420;-78
2024/01/07 10:31:49;;;;;;;12.02;6.60;;;4.60;79.60;;;;;;4017332;29;20144;-77
2024/01/07 10:33:51;;;;;;;11.15;6.63;;;4.50;79.60;;;;;;4022966;29;20479;-79
2024/01/07 10:35:57;;;;;;;11.23;7.20;;;4.50;79.70;;;;;;4006669;29;20110;-80
2024/01/07 10:38:01;;;;;;;10.75;5.82;;;4.50;79.00;;;;;;4007304;29;20057;-80
2024/01/07 10:40:03;;;;;;;11.63;6.90;;;4.50;79.40;;;;;;4010049;29;20062;-80
2024/01/07 10:42:07;;;;;;;10.82;6.50;;;4.50;79.00;;;;;;4010484;29;20544;-83
2024/01/07 10:44:09;;;;;;;11.27;6.57;;;4.50;78.70;;;;;;4011047;29;20053;-83
2024/01/07 10:46:13;;;;;;;11.05;6.40;;;4.50;78.80;;;;;;4008535;29;20050;-82
2024/01/07 10:48:18;;;;;;;11.63;6.53;;;4.40;78.80;;;;;;4008028;29;20061;-78
2024/01/07 10:50:21;;;;;;;12.32;6.72;;;4.40;78.80;;;;;;3996563;29;20508;-80
2024/01/07 10:52:24;;;;;;;11.32;7.05;;;4.40;78.50;;;;;;4008973;29;20482;-78
2024/01/07 10:54:30;;;;;;;12.43;6.95;;;4.40;78.40;;;;;;4009849;29;20062;-79
2024/01/07 10:56:39;;;;;;;16.08;9.57;;;4.30;78.60;;;;;;4006415;29;20061;-78
2024/01/07 10:58:43;;;;;;;13.15;8.05;;;4.30;79.00;;;;;;4006653;29;20057;-80
2024/01/07 11:00:45;;;;;;;13.90;7.85;;;4.40;78.50;;;;;;4007038;29;20484;-77
2024/01/07 11:03:25;;;;;;;13.00;7.57;;;4.30;78.80;;;;;;4007743;29;20050;-77
2024/01/07 11:05:42;;;;;;;14.30;7.80;;;4.30;78.50;;;;;;4017328;29;20062;-80
2024/01/07 11:07:51;;;;;;;12.25;7.07;;;4.30;78.30;;;;;;4012372;29;20069;-78
2024/01/07 11:10:06;;;;;;;12.20;7.25;;;4.30;79.10;;;;;;4011739;29;20061;-77
2024/01/07 11:12:08;;;;;;;12.00;7.32;;;4.30;79.30;;;;;;4009752;29;20098;-77
2024/01/07 11:14:35;;;;;;;10.80;7.00;;;4.30;79.40;;;;;;4011657;29;20133;-77
2024/01/07 11:16:44;;;;;;;11.63;7.07;;;4.30;78.90;;;;;;4007461;29;20489;-77
2024/01/07 11:18:49;;;;;;;12.43;7.25;;;4.30;78.80;;;;;;4008628;29;20119;-77
2024/01/07 11:20:50;;;;;;;11.93;7.55;;;4.30;79.00;;;;;;4006096;29;20491;-78
2024/01/07 11:22:52;;;;;;;12.30;7.60;;;4.30;78.90;;;;;;4006245;29;20111;-80
2024/01/07 11:24:55;;;;;;;12.98;7.93;;;4.30;79.30;;;;;;4007172;29;20154;-80
2024/01/07 11:27:02;;;;;;;11.73;7.00;;;4.20;79.20;;;;;;4007694;29;20046;-82
2024/01/07 11:29:04;;;;;;;11.95;7.55;;;4.20;80.20;;;;;;4006702;29;20058;-78
2024/01/07 11:31:05;;;;;;;12.38;7.40;;;4.20;79.30;;;;;;4004518;29;20062;-77
2024/01/07 11:33:07;;;;;;;12.60;7.70;;;4.20;79.30;;;;;;4012677;29;20086;-80
2024/01/07 11:35:09;;;;;;;12.38;7.63;;;4.20;79.60;;;;;;4012937;29;20111;-79
2024/01/07 11:37:12;;;;;;;12.40;7.68;;;4.20;79.30;;;;;;4006452;29;20072;-79
2024/01/07 11:39:13;;;;;;;12.57;7.55;;;4.20;79.20;;;;;;4006662;29;20065;-78
2024/01/07 11:41:17;;;;;;;13.15;7.43;;;4.20;79.20;;;;;;4019737;29;20061;-79
2024/01/07 11:43:21;;;;;;;13.75;8.10;;;4.30;79.20;;;;;;4021626;29;20057;-80
2024/01/07 11:45:23;;;;;;;11.95;7.38;;;4.30;79.00;;;;;;4009739;29;20053;-80
2024/01/07 11:47:27;;;;;;;35.63;18.98;;;4.30;78.60;;;;;;4006009;29;20086;-78
2024/01/07 11:49:29;;;;;;;13.65;8.00;;;4.20;78.10;;;;;;4007100;29;20097;-78
2024/01/07 11:51:34;;;;;;;11.13;6.75;;;4.20;78.20;;;;;;4006131;29;20978;-81
2024/01/07 11:53:36;;;;;;;13.00;7.57;;;4.30;78.60;;;;;;4006503;29;20054;-80
2024/01/07 11:55:38;;;;;;;13.57;8.05;;;4.30;78.80;;;;;;4006407;29;20540;-80
2024/01/07 11:57:43;;;;;;;11.98;7.32;;;4.30;79.00;;;;;;4006004;29;20049;-76
2024/01/07 11:59:46;;;;;;;12.95;7.57;;;4.20;78.30;;;;;;4005214;29;20050;-78
2024/01/07 12:01:48;;;;;;;12.65;7.82;;;4.20;78.50;;;;;;4005889;29;20065;-78
2024/01/07 12:03:50;;;;;;;12.93;8.15;;;4.20;78.60;;;;;;4006811;29;20060;-80
2024/01/07 12:05:52;;;;;;;12.10;7.50;;;4.30;78.80;;;;;;4006480;29;20050;-77
2024/01/07 12:07:54;;;;;;;12.32;7.07;;;4.20;78.50;;;;;;4006179;29;20060;-80
2024/01/07 12:09:57;;;;;;;10.70;7.00;;;4.20;77.80;;;;;;4005705;29;20117;-79
2024/01/07 12:12:00;;;;;;;12.50;7.40;;;4.20;77.80;;;;;;4005626;29;20492;-77
2024/01/07 12:14:03;;;;;;;10.93;7.03;;;4.20;78.30;;;;;;4005733;29;20520;-78
2024/01/07 12:16:07;;;;;;;11.73;7.50;;;4.20;77.70;;;;;;4006454;29;20054;-80
2024/01/07 12:18:13;;;;;;;13.02;8.00;;;4.20;78.00;;;;;;4004602;29;20069;-77
2024/01/07 12:20:15;;;;;;;12.30;7.50;;;4.20;78.20;;;;;;4006185;29;20045;-80
2024/01/07 12:22:19;;;;;;;11.27;6.90;;;4.20;77.50;;;;;;4005195;29;20064;-79
2024/01/07 12:24:25;;;;;;;12.20;7.18;;;4.20;77.40;;;;;;4005607;29;20057;-76
2024/01/07 12:26:28;;;;;;;10.98;7.07;;;4.10;77.20;;;;;;4005741;29;20133;-78
2024/01/07 12:28:30;;;;;;;11.10;6.85;;;4.10;77.70;;;;;;4005470;29;20049;-78
2024/01/07 12:30:33;;;;;;;12.48;7.30;;;4.10;77.50;;;;;;4005701;29;20723;-78
2024/01/07 12:32:36;;;;;;;10.00;6.22;;;4.10;77.30;;;;;;4005883;29;20054;-78
2024/01/07 12:34:38;;;;;;;13.48;8.50;;;4.10;77.40;;;;;;4004398;29;20073;-76
2024/01/07 12:36:40;;;;;;;13.93;7.78;;;4.10;77.20;;;;;;4005447;29;20083;-79
2024/01/07 12:38:42;;;;;;;15.35;9.05;;;4.10;77.10;;;;;;4008487;29;20049;-78
2024/01/07 12:40:44;;;;;;;13.68;8.15;;;4.00;77.60;;;;;;4007008;29;20453;-78
2024/01/07 12:42:47;;;;;;;12.57;7.50;;;4.00;77.40;;;;;;4008947;29;20064;-80
2024/01/07 12:44:49;;;;;;;12.90;8.20;;;4.00;77.30;;;;;;4006006;29;20053;-80
2024/01/07 12:46:52;;;;;;;13.57;8.30;;;4.00;77.30;;;;;;4011211;29;20054;-78
2024/01/07 12:48:56;;;;;;;15.23;9.57;;;4.10;77.90;;;;;;4015371;29;20128;-76
2024/01/07 12:50:58;;;;;;;13.43;8.70;;;4.00;77.70;;;;;;4010220;29;20054;-78
2024/01/07 12:53:00;;;;;;;11.27;7.13;;;4.00;77.50;;;;;;4007090;29;20118;-78
2024/01/07 12:55:02;;;;;;;11.80;7.20;;;4.00;77.60;;;;;;4011629;29;20460;-79
2024/01/07 12:57:07;;;;;;;13.45;7.53;;;4.00;77.50;;;;;;4007518;29;20429;-79
2024/01/07 12:59:12;;;;;;;11.23;7.43;;;4.00;77.20;;;;;;4012183;29;20484;-77
2024/01/07 13:01:14;;;;;;;11.88;7.25;;;3.90;77.20;;;;;;4001262;29;20054;-78
2024/01/07 13:03:18;;;;;;;15.15;8.70;;;4.00;77.60;;;;;;4012790;29;20422;-77
2024/01/07 13:05:25;;;;;;;12.43;7.28;;;3.90;77.30;;;;;;4019699;29;20117;-77
2024/01/07 13:07:29;;;;;;;13.85;8.43;;;4.00;77.50;;;;;;4017313;29;20058;-78
2024/01/07 13:09:30;;;;;;;22.45;13.05;;;3.90;77.40;;;;;;4005336;29;20050;-80
2024/01/07 13:11:32;;;;;;;14.93;9.27;;;3.90;77.60;;;;;;4011923;29;20605;-79
2024/01/07 13:13:34;;;;;;;15.27;9.07;;;3.90;77.90;;;;;;4009236;29;20058;-79
2024/01/07 13:15:36;;;;;;;17.83;9.52;;;3.90;77.90;;;;;;4007104;29;20057;-78
2024/01/07 13:17:38;;;;;;;11.55;7.07;;;3.90;77.40;;;;;;4007965;29;20102;-79
2024/01/07 13:19:41;;;;;;;12.65;7.60;;;3.90;77.20;;;;;;4005096;29;20062;-79
2024/01/07 13:21:45;;;;;;;13.00;7.80;;;3.80;77.20;;;;;;4003887;29;20049;-79
2024/01/07 13:23:47;;;;;;;12.85;7.97;;;3.80;77.40;;;;;;4004698;29;20087;-77
2024/01/07 13:25:49;;;;;;;14.63;8.82;;;3.80;77.30;;;;;;4004266;29;20053;-78
2024/01/07 13:27:51;;;;;;;11.65;7.50;;;3.80;77.40;;;;;;4011201;29;20496;-78
2024/01/07 13:29:53;;;;;;;14.05;7.85;;;3.80;78.00;;;;;;4004296;29;20056;-79
2024/01/07 13:31:55;;;;;;;15.70;9.45;;;3.80;78.00;;;;;;4004404;29;20110;-78
2024/01/07 13:33:57;;;;;;;13.85;7.97;;;3.80;78.90;;;;;;4008230;29;20118;-81
2024/01/07 13:35:59;;;;;;;12.82;7.55;;;3.80;78.70;;;;;;4014418;29;20099;-82
2024/01/07 13:38:02;;;;;;;13.38;7.97;;;3.70;79.30;;;;;;4011301;29;20495;-81
2024/01/07 13:40:05;;;;;;;13.57;8.60;;;3.70;78.90;;;;;;4011517;29;20045;-81
2024/01/07 13:42:07;;;;;;;14.02;8.48;;;3.70;78.80;;;;;;4008642;29;20144;-81
2024/01/07 13:44:17;;;;;;;13.10;8.27;;;3.60;78.70;;;;;;4011900;29;20090;-82
2024/01/07 13:46:23;;;;;;;13.80;8.55;;;3.60;78.50;;;;;;4011319;29;20141;-83
2024/01/07 13:48:25;;;;;;;15.10;8.82;;;3.50;78.40;;;;;;4021173;29;20054;-82
2024/01/07 13:50:27;;;;;;;18.30;10.60;;;3.50;78.80;;;;;;4013153;29;20050;-83
2024/01/07 13:52:29;;;;;;;23.83;13.73;;;3.40;78.80;;;;;;4012393;29;20054;-84
2024/01/07 13:54:33;;;;;;;18.73;11.50;;;3.40;79.30;;;;;;4012451;29;20057;-83
2024/01/07 13:56:35;;;;;;;18.70;10.90;;;3.40;79.40;;;;;;3997884;29;20097;-81
2024/01/07 13:58:37;;;;;;;16.08;10.15;;;3.30;79.80;;;;;;4009672;29;20551;-78
2024/01/07 14:00:39;;;;;;;16.17;9.70;;;3.40;81.10;;;;;;4022030;29;20061;-80
2024/01/07 14:02:43;;;;;;;19.00;10.13;;;3.30;80.70;;;;;;4017054;29;20054;-82
2024/01/07 14:04:45;;;;;;;15.52;9.65;;;3.30;82.10;;;;;;4013639;29;20053;-82
2024/01/07 14:06:47;;;;;;;19.60;9.65;;;3.30;81.30;;;;;;4015362;29;20078;-79
2024/01/07 14:08:50;;;;;;;16.48;9.15;;;3.30;81.10;;;;;;4009829;29;20102;-80
2024/01/07 14:10:53;;;;;;;16.90;10.48;;;3.30;81.20;;;;;;4012920;29;20113;-80
2024/01/07 14:12:55;;;;;;;17.25;9.27;;;3.30;81.30;;;;;;4009766;29;20054;-80
2024/01/07 14:14:58;;;;;;;16.95;10.40;;;3.20;81.50;;;;;;4009187;29;20058;-77
2024/01/07 14:17:00;;;;;;;18.60;10.93;;;3.30;83.10;;;;;;4007664;29;20053;-75
2024/01/07 14:19:03;;;;;;;18.88;11.43;;;3.20;81.60;;;;;;4006005;29;20050;-77
2024/01/07 14:21:05;;;;;;;17.35;11.48;;;3.20;81.70;;;;;;4003264;29;20056;-79
2024/01/07 14:23:07;;;;;;;17.98;10.68;;;3.20;82.10;;;;;;4013212;29;20819;-81
2024/01/07 14:25:09;;;;;;;23.00;13.95;;;3.20;82.20;;;;;;4014108;29;20114;-80
2024/01/07 14:27:15;;;;;;;21.48;12.57;;;3.10;82.30;;;;;;4011076;29;20133;-77
2024/01/07 14:29:18;;;;;;;;;;;3.10;82.10;;;;;;4018600;29;20060;-77
2024/01/07 14:31:20;;;;;;;32.97;18.55;;;3.10;82.90;;;;;;4014564;29;19932;-79
2024/01/07 14:33:21;;;;;;;25.08;14.60;;;3.10;83.00;;;;;;4009534;29;20282;-77
2024/01/07 14:35:25;;;;;;;25.20;13.05;;;3.10;83.40;;;;;;4014980;29;20045;-77
2024/01/07 14:37:27;;;;;;;21.92;11.48;;;3.10;83.50;;;;;;4009091;29;20078;-79
2024/01/07 14:39:29;;;;;;;21.90;12.98;;;3.10;83.50;;;;;;4009022;29;20483;-77
2024/01/07 14:41:31;;;;;;;19.98;10.55;;;3.10;83.50;;;;;;4007372;29;20068;-78
2024/01/07 14:43:34;;;;;;;35.90;18.23;;;3.10;83.80;;;;;;4014960;29;20053;-79
2024/01/07 14:45:42;;;;;;;22.75;13.32;;;3.00;83.90;;;;;;4015149;29;20050;-79
2024/01/07 14:47:44;;;;;;;21.20;12.23;;;3.00;84.00;;;;;;4017849;29;20137;-80
2024/01/07 14:49:46;;;;;;;22.33;13.35;;;3.00;84.20;;;;;;4018611;29;20492;-78
2024/01/07 14:51:48;;;;;;;23.33;13.27;;;3.00;84.40;;;;;;4009046;29;20100;-77
2024/01/07 14:53:51;;;;;;;25.45;14.38;;;3.00;84.60;;;;;;4018989;29;20105;-76
2024/01/07 14:55:52;;;;;;;23.00;13.75;;;3.00;84.70;;;;;;4008209;29;20507;-77
2024/01/07 14:57:54;;;;;;;21.90;11.93;;;3.00;84.60;;;;;;4008727;29;20054;-77
2024/01/07 15:00:00;;;;;;;23.15;13.80;;;3.00;84.80;;;;;;4007544;29;20722;-79
2024/01/07 15:02:02;;;;;;;21.35;12.75;;;2.90;85.30;;;;;;4007639;29;20058;-76
2024/01/07 15:04:04;;;;;;;21.98;12.88;;;2.90;85.60;;;;;;4008950;29;20090;-76
2024/01/07 15:06:08;;;;;;;21.92;12.60;;;2.90;85.50;;;;;;4010279;29;20129;-77
2024/01/07 15:08:12;;;;;;;23.35;13.45;;;2.90;85.50;;;;;;4006259;29;20049;-77
2024/01/07 15:10:18;;;;;;;24.27;13.52;;;2.90;85.80;;;;;;4007153;29;20054;-75
2024/01/07 15:12:20;;;;;;;24.30;14.27;;;2.80;86.60;;;;;;4012546;29;20041;-79
2024/01/07 15:14:23;;;;;;;25.05;14.30;;;2.90;86.10;;;;;;4020769;29;20088;-79
2024/01/07 15:16:25;;;;;;;26.83;15.52;;;2.80;85.70;;;;;;4006899;29;20556;-78
2024/01/07 15:18:28;;;;;;;24.25;14.25;;;2.70;86.00;;;;;;4004894;29;20054;-78
2024/01/07 15:20:30;;;;;;;22.08;13.38;;;2.70;85.00;;;;;;4006538;29;20083;-77
2024/01/07 15:22:32;;;;;;;22.25;13.52;;;2.70;85.00;;;;;;4008351;29;20056;-78
2024/01/07 15:24:37;;;;;;;21.35;12.63;;;2.70;85.70;;;;;;4009610;29;20058;-83
2024/01/07 15:26:40;;;;;;;23.20;12.90;;;2.70;85.50;;;;;;4015783;29;20060;-79
2024/01/07 15:28:42;;;;;;;22.85;13.68;;;2.60;85.50;;;;;;4015069;29;20091;-78
2024/01/07 15:30:46;;;;;;;22.75;13.90;;;2.60;85.40;;;;;;4023475;29;20065;-79
2024/01/07 15:32:50;;;;;;;21.45;12.70;;;2.60;84.90;;;;;;4015175;29;20065;-79
2024/01/07 15:34:51;;;;;;;21.30;12.85;;;2.60;84.40;;;;;;4017754;29;20058;-79
2024/01/07 15:37:07;;;;;;;20.98;12.65;;;2.60;84.30;;;;;;4022536;29;20058;-82
2024/01/07 15:39:10;;;;;;;18.85;11.27;;;2.50;84.30;;;;;;4016936;29;20058;-82
2024/01/07 15:41:12;;;;;;;19.30;11.93;;;2.50;83.90;;;;;;4021174;29;20053;-82
2024/01/07 15:43:15;;;;;;;19.73;11.68;;;2.50;83.90;;;;;;4008320;29;20054;-84
2024/01/07 15:45:17;;;;;;;19.95;11.65;;;2.50;84.20;;;;;;4009158;29;20085;-77
2024/01/07 15:47:20;;;;;;;19.15;12.38;;;2.40;84.20;;;;;;4009655;29;20085;-80
2024/01/07 15:49:24;;;;;;;19.92;12.02;;;2.40;84.60;;;;;;4009739;29;20058;-81
2024/01/07 15:51:26;;;;;;;21.67;12.40;;;2.40;85.00;;;;;;4008204;29;20195;-81
2024/01/07 15:53:32;;;;;;;22.52;12.80;;;2.40;85.30;;;;;;3992295;29;20682;-80
2024/01/07 15:55:34;;;;;;;21.77;13.10;;;2.40;85.30;;;;;;4007124;29;20057;-82
2024/01/07 15:57:37;;;;;;;20.38;12.68;;;2.40;85.50;;;;;;4009667;29;20056;-81
2024/01/07 15:59:53;;;;;;;22.17;13.57;;;2.40;85.60;;;;;;4008422;29;20060;-80
2024/01/07 16:01:55;;;;;;;27.73;15.27;;;2.40;86.00;;;;;;4007507;29;20065;-84
2024/01/07 16:03:58;;;;;;;29.00;16.35;;;2.40;86.30;;;;;;4013124;29;20053;-79
2024/01/07 16:06:02;;;;;;;28.33;16.70;;;2.40;86.60;;;;;;4006090;29;20050;-82
2024/01/07 16:08:05;;;;;;;30.00;17.05;;;2.40;86.90;;;;;;4015733;29;20057;-82
2024/01/07 16:10:08;;;;;;;22.58;14.18;;;2.50;87.20;;;;;;4012945;29;20126;-83
2024/01/07 16:12:13;;;;;;;26.23;15.45;;;2.40;87.20;;;;;;3996440;29;20050;-83
2024/01/07 16:14:16;;;;;;;30.90;14.57;;;2.40;87.30;;;;;;4011833;29;20050;-83
2024/01/07 16:16:18;;;;;;;25.65;14.20;;;2.40;87.20;;;;;;4010176;29;20152;-82
2024/01/07 16:18:20;;;;;;;29.40;15.88;;;2.30;87.30;;;;;;4010287;29;20058;-82
2024/01/07 16:20:22;;;;;;;24.75;13.48;;;2.40;87.60;;;;;;4009701;29;20130;-81
2024/01/07 16:22:26;;;;;;;21.63;13.27;;;2.40;87.30;;;;;;4010188;29;20060;-84
2024/01/07 16:24:28;;;;;;;21.25;13.05;;;2.30;86.90;;;;;;4009428;29;20114;-82
2024/01/07 16:26:30;;;;;;;23.27;12.93;;;2.40;87.40;;;;;;4010063;29;20053;-83
2024/01/07 16:28:32;;;;;;;21.13;13.13;;;2.30;87.40;;;;;;3993925;29;20390;-84
2024/01/07 16:30:36;;;;;;;21.50;12.82;;;2.30;87.50;;;;;;4010885;29;20102;-83
2024/01/07 16:32:40;;;;;;;21.00;13.05;;;2.40;87.60;;;;;;4011753;29;20080;-83
2024/01/07 16:34:42;;;;;;;20.73;12.77;;;2.40;87.60;;;;;;4008182;29;20053;-83
2024/01/07 16:36:44;;;;;;;26.27;15.07;;;2.30;87.30;;;;;;4020113;29;20400;-82